Agat, Guam
Current Conditions -  °F | °C
As of 2:54 PM on Thursday 18 Dec 2014 (Local Time) from PGUM Reporting Station
Scattered Clouds Scattered Clouds  
Wind Chill: 30°   Ceiling: Unl
Heat Index: 35°   Visibility: 10mi
Dew Point: 24°   Wind: 14mph
Humidity: 72%   Direction: 60°ENE
Pressure: 29.88"   Gusts: NA
Location:  13.38°N, 144.65°E
Report Text: PGUM 180454Z 06012KT 10SM SCT020 30/24 A2988 RMK AO2 SLP110 T03000244
Loading
Personal Weather Stations






























Interactive Weather Map New forecast layout! Learn more

10-Day Weather Forecast

Advertisements
Track Severe Weather on mobile